createdAt,value
2022-12-01T00:00:02.366Z,15.27
2022-12-01T00:02:47.754Z,13.90
2022-12-01T00:05:33.328Z,13.37
2022-12-01T00:08:19.697Z,13.40
2022-12-01T00:11:10.482Z,12.73
2022-12-01T00:13:55.666Z,13.40
2022-12-01T00:16:41.421Z,14.10
2022-12-01T00:19:27.557Z,13.63
2022-12-01T00:22:12.880Z,13.03
2022-12-01T00:24:58.261Z,15.13
2022-12-01T00:27:43.784Z,11.97
2022-12-01T00:30:28.969Z,13.67
2022-12-01T00:33:14.396Z,12.37
2022-12-01T00:36:00.677Z,13.47
2022-12-01T00:38:46.764Z,10.30
2022-12-01T00:41:32.392Z,12.80
2022-12-01T00:44:18.318Z,11.77
2022-12-01T00:47:03.592Z,12.67
2022-12-01T00:49:49.452Z,11.47
2022-12-01T00:52:35.020Z,14.10
2022-12-01T00:55:20.415Z,12.17
2022-12-01T00:58:06.303Z,13.37
2022-12-01T01:01:00.018Z,12.53
2022-12-01T01:03:45.409Z,11.00
2022-12-01T01:06:31.105Z,11.43
2022-12-01T01:09:16.927Z,12.70
2022-12-01T01:12:02.504Z,12.53
2022-12-01T01:14:47.800Z,13.53
2022-12-01T01:17:34.090Z,12.27
2022-12-01T01:20:20.785Z,14.27
2022-12-01T01:23:06.492Z,13.03
2022-12-01T01:25:52.027Z,12.67
2022-12-01T01:28:37.232Z,12.67
2022-12-01T01:31:25.348Z,12.27
2022-12-01T01:34:10.922Z,13.07
2022-12-01T01:36:56.529Z,12.57
2022-12-01T01:39:42.188Z,12.47
2022-12-01T01:42:27.581Z,13.70
2022-12-01T01:45:28.880Z,12.43
2022-12-01T01:48:14.649Z,13.37
2022-12-01T01:51:00.895Z,10.67
2022-12-01T01:53:48.897Z,12.73
2022-12-01T01:56:36.595Z,15.77
2022-12-01T01:59:28.036Z,13.93
2022-12-01T02:02:13.739Z,13.37
2022-12-01T02:05:02.697Z,12.33
2022-12-01T02:07:49.306Z,11.33
2022-12-01T02:10:42.653Z,13.13
2022-12-01T02:14:16.866Z,13.50
2022-12-01T02:17:26.529Z,14.40
2022-12-01T02:20:33.231Z,12.00
2022-12-01T02:23:32.286Z,13.97
2022-12-01T02:26:33.861Z,13.60
2022-12-01T02:29:30.521Z,13.67
2022-12-01T02:32:38.907Z,14.10
2022-12-01T02:35:30.384Z,14.10
2022-12-01T02:38:21.709Z,11.47
2022-12-01T02:41:30.121Z,13.03
2022-12-01T02:44:22.599Z,13.53
2022-12-01T02:47:19.599Z,14.53
2022-12-01T02:50:07.618Z,15.47
2022-12-01T02:52:54.705Z,12.43
2022-12-01T02:55:55.153Z,13.80
2022-12-01T02:58:40.630Z,13.70
2022-12-01T03:02:11.632Z,14.37
2022-12-01T03:05:05.889Z,15.10
2022-12-01T03:08:13.744Z,13.38
2022-12-01T03:11:01.031Z,14.43
2022-12-01T03:13:52.231Z,14.77
2022-12-01T03:16:53.149Z,13.87
2022-12-01T03:19:50.590Z,13.90
2022-12-01T03:22:49.736Z,13.80
2022-12-01T03:25:37.971Z,13.70
2022-12-01T03:28:29.545Z,14.40
2022-12-01T03:31:20.069Z,13.97
2022-12-01T03:34:13.299Z,15.17
2022-12-01T03:37:04.854Z,15.60
2022-12-01T03:39:55.984Z,14.37
2022-12-01T03:42:53.301Z,13.67
2022-12-01T03:45:47.565Z,14.37
2022-12-01T03:48:33.956Z,14.35
2022-12-01T03:51:52.044Z,16.30
2022-12-01T03:54:47.276Z,13.90
2022-12-01T03:57:44.904Z,14.40
2022-12-01T04:00:31.472Z,14.00
2022-12-01T04:03:19.422Z,13.87
2022-12-01T04:06:05.327Z,16.93
2022-12-01T04:08:50.739Z,14.73
2022-12-01T04:11:54.705Z,17.13
2022-12-01T04:14:40.009Z,13.97
2022-12-01T04:17:27.098Z,16.27
2022-12-01T04:20:14.953Z,17.13
2022-12-01T04:23:00.223Z,16.13
2022-12-01T04:25:45.637Z,16.20
2022-12-01T04:28:31.379Z,16.90
2022-12-01T04:31:16.850Z,15.20
2022-12-01T04:34:02.345Z,17.40
2022-12-01T04:36:48.103Z,16.17
2022-12-01T04:39:34.436Z,15.83
2022-12-01T04:42:19.852Z,18.93
2022-12-01T04:45:06.145Z,15.93
2022-12-01T04:47:53.102Z,17.27
2022-12-01T04:50:38.519Z,18.63
2022-12-01T04:53:24.316Z,17.67
2022-12-01T04:56:09.593Z,16.73
2022-12-01T04:58:55.057Z,18.90
2022-12-01T05:01:40.645Z,16.63
2022-12-01T05:04:26.367Z,14.93
2022-12-01T05:07:11.647Z,17.30
2022-12-01T05:09:57.430Z,17.87
2022-12-01T05:12:43.147Z,15.13
2022-12-01T05:15:28.700Z,18.67
2022-12-01T05:18:14.149Z,18.00
2022-12-01T05:20:59.550Z,15.90
2022-12-01T05:23:45.716Z,18.00
2022-12-01T05:26:31.256Z,17.83
2022-12-01T05:29:17.097Z,17.43
2022-12-01T05:32:03.194Z,17.43
2022-12-01T05:34:48.973Z,14.90
2022-12-01T05:37:34.836Z,16.90
2022-12-01T05:40:20.579Z,15.83
2022-12-01T05:43:06.748Z,16.17
2022-12-01T05:45:52.176Z,19.10
2022-12-01T05:48:37.588Z,19.00
2022-12-01T05:51:23.089Z,18.87
2022-12-01T05:54:08.662Z,16.20
2022-12-01T05:56:53.919Z,16.93
2022-12-01T05:59:39.510Z,17.80
2022-12-01T06:02:26.933Z,16.50
2022-12-01T06:05:12.729Z,18.90
2022-12-01T06:07:58.429Z,17.60
2022-12-01T06:10:44.390Z,16.43
2022-12-01T06:13:29.660Z,18.03
2022-12-01T06:16:15.211Z,19.60
2022-12-01T06:19:00.365Z,19.70
2022-12-01T06:21:45.943Z,18.17
2022-12-01T06:24:31.452Z,20.27
2022-12-01T06:27:16.971Z,19.17
2022-12-01T06:30:02.966Z,21.90
2022-12-01T06:32:49.113Z,20.13
2022-12-01T06:35:35.253Z,20.73
2022-12-01T06:38:20.940Z,20.23
2022-12-01T06:41:06.419Z,18.93
2022-12-01T06:43:51.829Z,22.80
2022-12-01T06:46:37.979Z,18.87
2022-12-01T06:49:23.543Z,18.70
2022-12-01T06:52:10.133Z,17.33
2022-12-01T06:54:55.659Z,21.40
2022-12-01T06:57:41.614Z,17.77
2022-12-01T07:00:27.758Z,17.80
2022-12-01T07:03:13.384Z,19.03
2022-12-01T07:06:00.475Z,23.50
2022-12-01T07:08:45.926Z,22.43
2022-12-01T07:11:32.349Z,20.97
2022-12-01T07:14:23.796Z,18.93
2022-12-01T07:17:10.015Z,21.10
2022-12-01T07:19:55.816Z,21.90
2022-12-01T07:22:43.073Z,21.47
2022-12-01T07:25:28.474Z,19.77
2022-12-01T07:28:14.076Z,19.57
2022-12-01T07:31:11.062Z,21.40
2022-12-01T07:33:56.779Z,21.07
2022-12-01T07:36:42.105Z,20.07
2022-12-01T07:39:27.561Z,21.10
2022-12-01T07:42:12.920Z,20.80
2022-12-01T07:44:58.493Z,21.33
2022-12-01T07:47:44.626Z,26.13
2022-12-01T07:50:29.997Z,24.17
2022-12-01T07:53:15.212Z,20.27
2022-12-01T07:56:04.315Z,21.27
2022-12-01T07:58:53.669Z,23.90
2022-12-01T08:01:44.063Z,22.23
2022-12-01T08:04:30.119Z,22.93
2022-12-01T08:07:15.749Z,21.13
2022-12-01T08:10:01.351Z,22.30
2022-12-01T08:12:47.175Z,21.57
2022-12-01T08:15:32.841Z,19.57
2022-12-01T08:18:18.414Z,26.47
2022-12-01T08:21:04.669Z,19.63
2022-12-01T08:23:54.691Z,20.97
2022-12-01T08:26:39.985Z,20.00
2022-12-01T08:29:25.949Z,24.53
2022-12-01T08:32:11.255Z,21.83
2022-12-01T08:34:56.806Z,22.47
2022-12-01T08:37:42.170Z,21.47
2022-12-01T08:40:27.762Z,23.63
2022-12-01T08:43:23.064Z,20.37
2022-12-01T08:46:18.703Z,20.57
2022-12-01T08:49:05.447Z,21.57
2022-12-01T08:51:50.697Z,21.93
2022-12-01T08:54:36.283Z,22.07
2022-12-01T08:57:21.968Z,21.87
2022-12-01T09:00:07.980Z,21.30
2022-12-01T09:02:53.439Z,20.97
2022-12-01T09:05:38.889Z,21.77
2022-12-01T09:08:34.239Z,20.47
2022-12-01T09:11:19.925Z,22.47
2022-12-01T09:14:05.908Z,21.23
2022-12-01T09:16:51.501Z,25.10
2022-12-01T09:19:36.911Z,22.10
2022-12-01T09:22:22.235Z,23.27
2022-12-01T09:25:14.637Z,21.07
2022-12-01T09:28:00.044Z,22.07
2022-12-01T09:30:47.202Z,21.43
2022-12-01T09:33:32.670Z,20.67
2022-12-01T09:36:18.079Z,21.13
2022-12-01T09:39:05.709Z,18.70
2022-12-01T09:41:59.040Z,21.13
2022-12-01T09:44:52.642Z,24.07
2022-12-01T09:47:40.095Z,24.85
2022-12-01T09:50:26.132Z,20.27
2022-12-01T09:53:17.499Z,23.07
2022-12-01T09:56:10.044Z,21.70
2022-12-01T09:59:06.047Z,20.43
2022-12-01T10:02:00.742Z,25.00
2022-12-01T10:04:49.656Z,27.50
2022-12-01T10:07:44.335Z,31.87
2022-12-01T10:10:48.635Z,28.77
2022-12-01T10:13:34.531Z,25.38
2022-12-01T10:16:28.848Z,30.43
2022-12-01T10:19:23.918Z,31.27
2022-12-01T10:22:28.058Z,34.23
2022-12-01T10:25:23.900Z,28.47
2022-12-01T10:28:34.663Z,34.33
2022-12-01T10:31:22.056Z,27.83
2022-12-01T10:34:17.925Z,26.67
2022-12-01T10:37:03.693Z,25.83
2022-12-01T10:39:52.568Z,26.00
2022-12-01T10:42:44.918Z,29.00
2022-12-01T10:45:37.948Z,26.23
2022-12-01T10:48:23.502Z,22.30
2022-12-01T10:51:17.501Z,26.97
2022-12-01T10:54:11.633Z,26.70
2022-12-01T10:56:57.848Z,24.17
2022-12-01T11:00:05.052Z,20.73
2022-12-01T11:02:51.226Z,19.90
2022-12-01T11:05:42.236Z,21.07
2022-12-01T11:08:38.977Z,21.77
2022-12-01T11:11:40.025Z,22.30
2022-12-01T11:14:33.612Z,20.73
2022-12-01T11:17:39.981Z,21.63
2022-12-01T11:20:40.572Z,22.20
2022-12-01T11:23:28.508Z,21.10
2022-12-01T11:26:26.578Z,21.57
2022-12-01T11:29:31.370Z,23.47
2022-12-01T11:32:31.153Z,22.83
2022-12-01T11:35:20.172Z,22.67
2022-12-01T11:38:29.187Z,20.57
2022-12-01T11:41:33.032Z,20.60
2022-12-01T11:44:50.913Z,22.73
2022-12-01T11:47:27.965Z,23.87
2022-12-01T11:50:37.846Z,24.33
2022-12-01T11:53:29.405Z,22.13
2022-12-01T11:56:28.645Z,19.67
2022-12-01T11:59:23.956Z,21.87
2022-12-01T12:02:37.070Z,21.07
2022-12-01T12:05:33.220Z,27.20
2022-12-01T12:08:48.091Z,21.87
2022-12-01T12:11:47.755Z,21.00
2022-12-01T12:14:48.604Z,20.60
2022-12-01T12:18:01.320Z,21.83
2022-12-01T12:21:19.293Z,17.93
2022-12-01T12:24:24.737Z,22.27
2022-12-01T12:30:23.625Z,21.30
2022-12-01T12:33:17.986Z,20.43
2022-12-01T12:36:43.850Z,20.77
2022-12-01T12:42:47.905Z,23.33
2022-12-01T12:49:12.134Z,19.83
2022-12-01T12:52:25.722Z,24.80
2022-12-01T12:55:14.313Z,18.53
2022-12-01T12:58:14.609Z,21.23
2022-12-01T13:01:09.331Z,22.90
2022-12-01T13:04:07.734Z,25.52
2022-12-01T13:07:02.916Z,27.23
2022-12-01T13:10:00.937Z,22.13
2022-12-01T13:12:56.155Z,23.37
2022-12-01T13:15:42.308Z,20.87
2022-12-01T13:18:34.628Z,21.67
2022-12-01T13:21:21.907Z,21.67
2022-12-01T13:24:10.667Z,23.73
2022-12-01T13:27:00.405Z,21.77
2022-12-01T13:29:49.842Z,22.33
2022-12-01T13:32:40.825Z,20.80
2022-12-01T13:35:33.727Z,20.13
2022-12-01T13:38:30.394Z,23.83
2022-12-01T13:41:19.103Z,20.97
2022-12-01T13:44:24.621Z,21.83
2022-12-01T13:47:10.128Z,20.03
2022-12-01T13:49:55.894Z,20.63
2022-12-01T13:52:50.122Z,19.00
2022-12-01T13:55:55.385Z,20.95
2022-12-01T13:58:49.788Z,22.70
2022-12-01T14:01:46.448Z,20.13
2022-12-01T14:04:32.232Z,21.57
2022-12-01T14:07:37.368Z,23.10
2022-12-01T14:10:31.296Z,19.60
2022-12-01T14:13:20.068Z,21.20
2022-12-01T14:16:05.775Z,18.97
2022-12-01T14:18:56.687Z,19.93
2022-12-01T14:21:49.762Z,16.73
2022-12-01T14:24:37.999Z,17.80
2022-12-01T14:27:41.858Z,21.23
2022-12-01T14:30:39.469Z,17.73
2022-12-01T14:33:44.899Z,20.43
2022-12-01T14:36:41.996Z,16.30
2022-12-01T14:39:40.418Z,23.17
2022-12-01T14:42:52.317Z,25.13
2022-12-01T14:46:08.667Z,22.77
2022-12-01T14:48:55.383Z,22.13
2022-12-01T14:51:45.998Z,20.30
2022-12-01T14:54:39.070Z,20.20
2022-12-01T14:58:06.442Z,19.93
2022-12-01T15:00:59.670Z,17.97
2022-12-01T15:03:52.001Z,22.07
2022-12-01T15:06:38.079Z,15.50
2022-12-01T15:09:39.283Z,19.90
2022-12-01T15:12:32.024Z,19.57
2022-12-01T15:15:23.671Z,20.73
2022-12-01T15:18:23.007Z,16.57
2022-12-01T15:21:13.591Z,18.27
2022-12-01T15:24:19.742Z,20.07
2022-12-01T15:27:21.392Z,18.97
2022-12-01T15:30:13.128Z,17.83
2022-12-01T15:32:59.535Z,18.57
2022-12-01T15:35:47.211Z,16.60
2022-12-01T15:38:36.851Z,21.00
2022-12-01T15:41:31.327Z,20.00
2022-12-01T15:44:29.015Z,20.73
2022-12-01T15:47:55.845Z,20.67
2022-12-01T15:50:46.491Z,22.17
2022-12-01T15:53:35.520Z,20.63
2022-12-01T15:56:41.384Z,20.23
2022-12-01T15:59:33.355Z,21.77
2022-12-01T16:02:36.826Z,20.30
2022-12-01T16:05:30.903Z,22.03
2022-12-01T16:08:27.771Z,25.23
2022-12-01T16:11:16.106Z,22.83
2022-12-01T16:14:26.058Z,17.80
2022-12-01T16:17:11.723Z,21.23
2022-12-01T16:20:18.167Z,20.20
2022-12-01T16:23:10.211Z,20.13
2022-12-01T16:26:00.474Z,20.37
2022-12-01T16:28:47.381Z,21.20
2022-12-01T16:31:33.029Z,22.30
2022-12-01T16:34:44.481Z,20.43
2022-12-01T16:37:27.641Z,18.63
2022-12-01T16:40:14.249Z,24.33
2022-12-01T16:42:59.655Z,22.17
2022-12-01T16:45:46.519Z,20.70
2022-12-01T16:48:32.041Z,22.07
2022-12-01T16:51:29.402Z,21.37
2022-12-01T16:54:15.607Z,21.30
2022-12-01T16:57:01.587Z,19.50
2022-12-01T16:59:46.855Z,21.10
2022-12-01T17:02:32.535Z,21.63
2022-12-01T17:05:18.136Z,19.40
2022-12-01T17:08:03.857Z,22.53
2022-12-01T17:10:51.021Z,21.53
2022-12-01T17:13:38.374Z,24.37
2022-12-01T17:16:23.799Z,21.27
2022-12-01T17:19:08.994Z,19.87
2022-12-01T17:21:55.901Z,20.40
2022-12-01T17:24:41.422Z,19.23
2022-12-01T17:27:27.734Z,20.50
2022-12-01T17:30:13.675Z,18.97
2022-12-01T17:32:59.276Z,24.37
2022-12-01T17:35:44.861Z,20.30
2022-12-01T17:38:30.504Z,22.07
2022-12-01T17:41:20.788Z,20.87
2022-12-01T17:44:06.087Z,19.17
2022-12-01T17:46:51.844Z,18.90
2022-12-01T17:49:37.058Z,18.63
2022-12-01T17:52:28.002Z,19.47
2022-12-01T17:55:13.959Z,20.77
2022-12-01T17:57:59.477Z,20.70
2022-12-01T18:00:44.707Z,21.80
2022-12-01T18:03:30.168Z,23.27
2022-12-01T18:06:17.207Z,19.60
2022-12-01T18:09:03.093Z,19.17
2022-12-01T18:11:49.539Z,20.87
2022-12-01T18:14:34.803Z,19.07
2022-12-01T18:17:19.955Z,19.93
2022-12-01T18:20:06.922Z,20.07
2022-12-01T18:22:52.355Z,20.77
2022-12-01T18:25:39.282Z,22.90
2022-12-01T18:28:24.562Z,19.47
2022-12-01T18:31:13.174Z,19.87
2022-12-01T18:34:03.069Z,22.20
2022-12-01T18:36:48.874Z,22.47
2022-12-01T18:39:34.084Z,19.53
2022-12-01T18:42:19.786Z,22.90
2022-12-01T18:45:05.384Z,21.60
2022-12-01T18:47:50.672Z,23.80
2022-12-01T18:50:36.197Z,24.07
2022-12-01T18:53:21.838Z,21.20
2022-12-01T18:56:11.687Z,21.17
2022-12-01T18:59:00.565Z,20.30
2022-12-01T19:01:47.649Z,16.90
2022-12-01T19:04:33.211Z,21.60
2022-12-01T19:07:18.640Z,19.83
2022-12-01T19:10:04.416Z,19.83
2022-12-01T19:12:49.909Z,20.60
2022-12-01T19:15:37.349Z,18.63
2022-12-01T19:18:22.700Z,21.17
2022-12-01T19:21:10.359Z,19.57
2022-12-01T19:23:56.208Z,22.60
2022-12-01T19:26:41.750Z,21.90
2022-12-01T19:29:27.097Z,19.23
2022-12-01T19:32:12.397Z,22.30
2022-12-01T19:34:57.566Z,21.47
2022-12-01T19:37:43.241Z,19.67
2022-12-01T19:40:28.546Z,22.80
2022-12-01T19:43:14.149Z,19.10
2022-12-01T19:46:07.384Z,23.17
2022-12-01T19:48:57.141Z,20.03
2022-12-01T19:51:42.631Z,23.03
2022-12-01T19:54:28.889Z,24.63
2022-12-01T19:57:14.682Z,23.33
2022-12-01T20:00:00.001Z,24.40
2022-12-01T20:02:45.434Z,23.10
2022-12-01T20:05:32.898Z,23.47
2022-12-01T20:08:18.487Z,27.07
2022-12-01T20:11:05.024Z,24.27
2022-12-01T20:13:51.488Z,27.07
2022-12-01T20:16:36.835Z,24.40
2022-12-01T20:19:22.340Z,24.83
2022-12-01T20:22:07.807Z,25.53
2022-12-01T20:24:53.278Z,25.70
2022-12-01T20:27:38.587Z,22.13
2022-12-01T20:30:24.042Z,23.10
2022-12-01T20:33:09.243Z,20.00
2022-12-01T20:35:54.544Z,24.53
2022-12-01T20:38:40.526Z,26.63
2022-12-01T20:41:25.805Z,19.50
2022-12-01T20:44:12.906Z,21.93
2022-12-01T20:46:58.529Z,27.77
2022-12-01T20:49:44.125Z,21.13
2022-12-01T20:52:29.595Z,23.57
2022-12-01T20:55:14.820Z,23.27
2022-12-01T20:58:02.734Z,24.10
2022-12-01T21:00:48.846Z,25.17
2022-12-01T21:03:34.144Z,23.33
2022-12-01T21:06:20.419Z,21.77
2022-12-01T21:09:07.469Z,23.63
2022-12-01T21:12:11.934Z,22.60
2022-12-01T21:15:17.753Z,22.33
2022-12-01T21:18:42.307Z,22.43
2022-12-01T21:21:30.290Z,21.23
2022-12-01T21:24:22.175Z,24.87
2022-12-01T21:27:16.016Z,22.80
2022-12-01T21:30:05.227Z,23.75
2022-12-01T21:32:50.935Z,24.03
2022-12-01T21:35:36.532Z,21.23
2022-12-01T21:38:22.485Z,23.37
2022-12-01T21:41:22.056Z,21.50
2022-12-01T21:44:36.609Z,21.50
2022-12-01T21:47:24.274Z,20.87
2022-12-01T21:50:23.562Z,22.67
2022-12-01T21:53:16.649Z,23.37
2022-12-01T21:56:02.085Z,20.73
2022-12-01T21:58:48.662Z,21.10
2022-12-01T22:01:34.947Z,20.03
2022-12-01T22:04:31.422Z,22.93
2022-12-01T22:07:16.767Z,21.33
2022-12-01T22:10:26.227Z,22.80
2022-12-01T22:13:13.173Z,21.90
2022-12-01T22:15:58.549Z,24.37
2022-12-01T22:18:58.838Z,22.37
2022-12-01T22:21:49.445Z,21.43
2022-12-01T22:24:41.129Z,21.03
2022-12-01T22:27:29.901Z,22.53
2022-12-01T22:30:23.785Z,21.50
2022-12-01T22:33:35.713Z,21.05
2022-12-01T22:36:31.297Z,21.93
2022-12-01T22:39:30.036Z,23.27
2022-12-01T22:42:22.024Z,19.90
2022-12-01T22:45:25.183Z,24.87
2022-12-01T22:48:25.774Z,27.13
2022-12-01T22:51:14.177Z,23.03
2022-12-01T22:54:14.518Z,22.77
2022-12-01T22:57:23.615Z,20.87
2022-12-01T23:00:17.852Z,22.47
2022-12-01T23:03:07.552Z,21.33
2022-12-01T23:05:56.716Z,20.83
2022-12-01T23:08:42.009Z,23.07
2022-12-01T23:11:27.545Z,23.13
2022-12-01T23:14:21.143Z,21.37
2022-12-01T23:17:11.039Z,22.27
2022-12-01T23:20:14.816Z,23.03
2022-12-01T23:23:03.936Z,25.43
2022-12-01T23:25:50.657Z,22.27
2022-12-01T23:28:38.939Z,23.40
2022-12-01T23:31:25.093Z,20.77
2022-12-01T23:34:16.384Z,23.43
2022-12-01T23:37:02.415Z,21.40
2022-12-01T23:39:47.765Z,23.23
2022-12-01T23:42:33.287Z,22.17
2022-12-01T23:45:25.174Z,25.07
2022-12-01T23:48:19.354Z,23.30
2022-12-01T23:51:10.200Z,25.45
2022-12-01T23:53:57.572Z,27.73
2022-12-01T23:56:50.561Z,22.80
2022-12-01T23:59:37.808Z,23.33
